Terminal Aerodrome Forecast
Issued by NWS Denver/Boulder, CO

Home | Current Version | Previous Version | Text Only | Print | Product List | Glossary On
Versions: 1 2 3 4 5 6 7 8 9 10 11 12 13 14 15 16 17 18 19 20 21 22 23 24 25 26 27 28 29 30 31 32 33 34 35 36 37 38 39 40 41 42 43 44 45 46 47 48 49 50
276
FTUS45 KBOU 211503 AAA
TAFDEN
TAF AMD
KDEN 211503Z 2115/2218 20011KT P6SM FEW090 SCT120 SCT220
     FM211700 02011KT P6SM FEW090 SCT120 SCT220
     FM212200 32013G22KT P6SM VCTS SCT080CB BKN120
      TEMPO 2122/2202 VRB20G35KT -TSRA BKN080CB
     FM220300 23011KT P6SM VCSH FEW080 BKN120 BKN200
     FM220600 20006KT P6SM FEW060 SCT090 BKN120=

USA.gov is the U.S. government's official web portal to all federal, state and local government web resources and services.